sensor_id;sensor_type;location;lat;lon;timestamp;P1;durP1;ratioP1;P2;durP2;ratioP2
74541;SDS011;63015;45.378;20.360;2024-01-30T00:00:45;65.97;;;27.83;;
74541;SDS011;63015;45.378;20.360;2024-01-30T00:02:45;65.18;;;29.80;;
74541;SDS011;63015;45.378;20.360;2024-01-30T00:04:46;70.45;;;31.00;;
74541;SDS011;63015;45.378;20.360;2024-01-30T00:06:46;67.53;;;30.05;;
74541;SDS011;63015;45.378;20.360;2024-01-30T00:08:47;70.75;;;32.25;;
74541;SDS011;63015;45.378;20.360;2024-01-30T00:10:49;79.85;;;33.60;;
74541;SDS011;63015;45.378;20.360;2024-01-30T00:12:49;65.72;;;29.08;;
74541;SDS011;63015;45.378;20.360;2024-01-30T00:14:50;56.28;;;26.13;;
74541;SDS011;63015;45.378;20.360;2024-01-30T00:16:50;64.38;;;27.67;;
74541;SDS011;63015;45.378;20.360;2024-01-30T00:18:51;58.28;;;26.80;;
74541;SDS011;63015;45.378;20.360;2024-01-30T00:20:52;57.85;;;24.67;;
74541;SDS011;63015;45.378;20.360;2024-01-30T00:22:53;55.70;;;24.90;;
74541;SDS011;63015;45.378;20.360;2024-01-30T00:24:53;58.20;;;26.15;;
74541;SDS011;63015;45.378;20.360;2024-01-30T00:26:54;60.55;;;26.70;;
74541;SDS011;63015;45.378;20.360;2024-01-30T00:28:54;62.83;;;26.00;;
74541;SDS011;63015;45.378;20.360;2024-01-30T00:30:55;54.15;;;24.70;;
74541;SDS011;63015;45.378;20.360;2024-01-30T00:32:55;59.03;;;25.52;;
74541;SDS011;63015;45.378;20.360;2024-01-30T00:34:56;53.42;;;24.10;;
74541;SDS011;63015;45.378;20.360;2024-01-30T00:36:56;49.72;;;22.75;;
74541;SDS011;63015;45.378;20.360;2024-01-30T00:38:57;62.67;;;25.40;;
74541;SDS011;63015;45.378;20.360;2024-01-30T00:40:57;58.15;;;25.08;;
74541;SDS011;63015;45.378;20.360;2024-01-30T00:42:58;68.88;;;26.55;;
74541;SDS011;63015;45.378;20.360;2024-01-30T00:44:58;62.35;;;26.80;;
74541;SDS011;63015;45.378;20.360;2024-01-30T00:46:59;64.18;;;27.27;;
74541;SDS011;63015;45.378;20.360;2024-01-30T00:48:59;71.88;;;28.00;;
74541;SDS011;63015;45.378;20.360;2024-01-30T00:50:59;56.08;;;21.27;;
74541;SDS011;63015;45.378;20.360;2024-01-30T00:53:00;69.05;;;27.13;;
74541;SDS011;63015;45.378;20.360;2024-01-30T00:55:01;62.15;;;26.70;;
74541;SDS011;63015;45.378;20.360;2024-01-30T00:57:03;61.58;;;26.02;;
74541;SDS011;63015;45.378;20.360;2024-01-30T00:59:03;56.17;;;23.48;;
74541;SDS011;63015;45.378;20.360;2024-01-30T01:01:04;67.65;;;24.42;;
74541;SDS011;63015;45.378;20.360;2024-01-30T01:03:04;46.25;;;20.92;;
74541;SDS011;63015;45.378;20.360;2024-01-30T01:05:05;46.90;;;20.80;;
74541;SDS011;63015;45.378;20.360;2024-01-30T01:07:06;45.95;;;20.40;;
74541;SDS011;63015;45.378;20.360;2024-01-30T01:09:06;49.10;;;20.77;;
74541;SDS011;63015;45.378;20.360;2024-01-30T01:11:07;49.95;;;19.83;;
74541;SDS011;63015;45.378;20.360;2024-01-30T01:13:07;42.85;;;19.52;;
74541;SDS011;63015;45.378;20.360;2024-01-30T01:15:08;42.95;;;19.85;;
74541;SDS011;63015;45.378;20.360;2024-01-30T01:17:10;44.17;;;18.65;;
74541;SDS011;63015;45.378;20.360;2024-01-30T01:19:10;44.45;;;20.10;;
74541;SDS011;63015;45.378;20.360;2024-01-30T01:21:10;46.20;;;19.08;;
74541;SDS011;63015;45.378;20.360;2024-01-30T01:23:11;40.15;;;18.42;;
74541;SDS011;63015;45.378;20.360;2024-01-30T01:25:11;44.08;;;19.20;;
74541;SDS011;63015;45.378;20.360;2024-01-30T01:27:12;42.95;;;18.52;;
74541;SDS011;63015;45.378;20.360;2024-01-30T01:29:12;47.33;;;19.60;;
74541;SDS011;63015;45.378;20.360;2024-01-30T01:31:13;46.05;;;19.38;;
74541;SDS011;63015;45.378;20.360;2024-01-30T01:33:13;38.33;;;17.58;;
74541;SDS011;63015;45.378;20.360;2024-01-30T01:35:14;43.10;;;18.63;;
74541;SDS011;63015;45.378;20.360;2024-01-30T01:37:14;49.50;;;19.67;;
74541;SDS011;63015;45.378;20.360;2024-01-30T01:39:16;44.75;;;20.45;;
74541;SDS011;63015;45.378;20.360;2024-01-30T01:41:16;49.83;;;21.10;;
74541;SDS011;63015;45.378;20.360;2024-01-30T01:43:17;50.88;;;20.17;;
74541;SDS011;63015;45.378;20.360;2024-01-30T01:45:18;50.83;;;20.75;;
74541;SDS011;63015;45.378;20.360;2024-01-30T01:47:19;54.72;;;21.67;;
74541;SDS011;63015;45.378;20.360;2024-01-30T01:49:24;48.88;;;20.75;;
74541;SDS011;63015;45.378;20.360;2024-01-30T01:51:27;45.45;;;18.90;;
74541;SDS011;63015;45.378;20.360;2024-01-30T01:53:29;36.10;;;14.45;;
74541;SDS011;63015;45.378;20.360;2024-01-30T01:55:30;40.72;;;15.63;;
74541;SDS011;63015;45.378;20.360;2024-01-30T01:57:33;43.53;;;17.67;;
74541;SDS011;63015;45.378;20.360;2024-01-30T01:59:34;36.92;;;16.25;;
74541;SDS011;63015;45.378;20.360;2024-01-30T02:01:37;37.75;;;16.90;;
74541;SDS011;63015;45.378;20.360;2024-01-30T02:03:38;37.70;;;15.68;;
74541;SDS011;63015;45.378;20.360;2024-01-30T02:05:40;36.53;;;15.75;;
74541;SDS011;63015;45.378;20.360;2024-01-30T02:07:42;35.40;;;14.52;;
74541;SDS011;63015;45.378;20.360;2024-01-30T02:09:43;37.05;;;15.13;;
74541;SDS011;63015;45.378;20.360;2024-01-30T02:11:44;32.42;;;13.60;;
74541;SDS011;63015;45.378;20.360;2024-01-30T02:13:44;31.13;;;13.73;;
74541;SDS011;63015;45.378;20.360;2024-01-30T02:15:48;25.45;;;12.50;;
74541;SDS011;63015;45.378;20.360;2024-01-30T02:17:49;32.25;;;14.35;;
74541;SDS011;63015;45.378;20.360;2024-01-30T02:19:50;25.40;;;12.63;;
74541;SDS011;63015;45.378;20.360;2024-01-30T02:21:50;27.65;;;12.43;;
74541;SDS011;63015;45.378;20.360;2024-01-30T02:23:51;28.52;;;13.80;;
74541;SDS011;63015;45.378;20.360;2024-01-30T02:25:54;24.92;;;10.65;;
74541;SDS011;63015;45.378;20.360;2024-01-30T02:27:55;30.98;;;15.30;;
74541;SDS011;63015;45.378;20.360;2024-01-30T02:29:55;39.22;;;17.52;;
74541;SDS011;63015;45.378;20.360;2024-01-30T02:31:56;40.38;;;18.00;;
74541;SDS011;63015;45.378;20.360;2024-01-30T02:33:56;42.63;;;18.10;;
74541;SDS011;63015;45.378;20.360;2024-01-30T02:35:57;47.65;;;20.23;;
74541;SDS011;63015;45.378;20.360;2024-01-30T02:37:57;47.20;;;17.55;;
74541;SDS011;63015;45.378;20.360;2024-01-30T02:39:58;49.72;;;19.33;;
74541;SDS011;63015;45.378;20.360;2024-01-30T02:41:58;39.58;;;16.55;;
74541;SDS011;63015;45.378;20.360;2024-01-30T02:43:59;32.95;;;15.10;;
74541;SDS011;63015;45.378;20.360;2024-01-30T02:45:59;37.40;;;16.05;;
74541;SDS011;63015;45.378;20.360;2024-01-30T02:48:00;36.03;;;15.68;;
74541;SDS011;63015;45.378;20.360;2024-01-30T02:50:01;39.50;;;13.95;;
74541;SDS011;63015;45.378;20.360;2024-01-30T02:52:02;28.45;;;12.13;;
74541;SDS011;63015;45.378;20.360;2024-01-30T02:54:03;31.83;;;13.70;;
74541;SDS011;63015;45.378;20.360;2024-01-30T02:56:03;24.25;;;10.75;;
74541;SDS011;63015;45.378;20.360;2024-01-30T02:58:05;26.38;;;11.15;;
74541;SDS011;63015;45.378;20.360;2024-01-30T03:00:07;27.38;;;11.77;;
74541;SDS011;63015;45.378;20.360;2024-01-30T03:02:09;13.82;;;7.00;;
74541;SDS011;63015;45.378;20.360;2024-01-30T03:04:10;15.35;;;7.20;;
74541;SDS011;63015;45.378;20.360;2024-01-30T03:06:11;26.75;;;10.88;;
74541;SDS011;63015;45.378;20.360;2024-01-30T03:08:11;28.77;;;11.35;;
74541;SDS011;63015;45.378;20.360;2024-01-30T03:10:12;14.45;;;7.45;;
74541;SDS011;63015;45.378;20.360;2024-01-30T03:12:12;18.83;;;7.90;;
74541;SDS011;63015;45.378;20.360;2024-01-30T03:14:13;13.18;;;6.57;;
74541;SDS011;63015;45.378;20.360;2024-01-30T03:16:13;12.23;;;5.50;;
74541;SDS011;63015;45.378;20.360;2024-01-30T03:18:14;21.33;;;10.07;;
74541;SDS011;63015;45.378;20.360;2024-01-30T03:20:14;25.95;;;11.50;;
74541;SDS011;63015;45.378;20.360;2024-01-30T03:22:15;22.77;;;10.55;;
74541;SDS011;63015;45.378;20.360;2024-01-30T03:24:15;25.40;;;10.25;;
74541;SDS011;63015;45.378;20.360;2024-01-30T03:26:16;26.40;;;11.57;;
74541;SDS011;63015;45.378;20.360;2024-01-30T03:28:16;28.55;;;12.32;;
74541;SDS011;63015;45.378;20.360;2024-01-30T03:30:17;28.77;;;12.20;;
74541;SDS011;63015;45.378;20.360;2024-01-30T03:32:17;24.67;;;10.50;;
74541;SDS011;63015;45.378;20.360;2024-01-30T03:34:18;28.35;;;10.15;;
74541;SDS011;63015;45.378;20.360;2024-01-30T03:36:18;26.67;;;11.02;;
74541;SDS011;63015;45.378;20.360;2024-01-30T03:38:19;29.08;;;10.63;;
74541;SDS011;63015;45.378;20.360;2024-01-30T03:40:20;28.98;;;12.13;;
74541;SDS011;63015;45.378;20.360;2024-01-30T03:42:20;27.52;;;11.15;;
74541;SDS011;63015;45.378;20.360;2024-01-30T03:44:22;24.75;;;11.13;;
74541;SDS011;63015;45.378;20.360;2024-01-30T03:46:23;25.30;;;11.55;;
74541;SDS011;63015;45.378;20.360;2024-01-30T03:48:23;23.67;;;10.60;;
74541;SDS011;63015;45.378;20.360;2024-01-30T03:50:24;22.50;;;9.27;;
74541;SDS011;63015;45.378;20.360;2024-01-30T03:52:25;24.85;;;12.00;;
74541;SDS011;63015;45.378;20.360;2024-01-30T03:54:25;24.27;;;11.60;;
74541;SDS011;63015;45.378;20.360;2024-01-30T03:56:26;28.42;;;12.35;;
74541;SDS011;63015;45.378;20.360;2024-01-30T03:58:26;23.33;;;11.10;;
74541;SDS011;63015;45.378;20.360;2024-01-30T04:00:26;25.75;;;11.90;;
74541;SDS011;63015;45.378;20.360;2024-01-30T04:02:27;27.17;;;12.77;;
74541;SDS011;63015;45.378;20.360;2024-01-30T04:04:27;26.27;;;12.40;;
74541;SDS011;63015;45.378;20.360;2024-01-30T04:06:28;24.70;;;11.50;;
74541;SDS011;63015;45.378;20.360;2024-01-30T04:08:28;19.30;;;8.18;;
74541;SDS011;63015;45.378;20.360;2024-01-30T04:10:29;22.73;;;9.93;;
74541;SDS011;63015;45.378;20.360;2024-01-30T04:12:29;28.60;;;12.75;;
74541;SDS011;63015;45.378;20.360;2024-01-30T04:14:30;26.17;;;12.27;;
74541;SDS011;63015;45.378;20.360;2024-01-30T04:16:30;26.73;;;11.57;;
74541;SDS011;63015;45.378;20.360;2024-01-30T04:18:31;28.35;;;11.63;;
74541;SDS011;63015;45.378;20.360;2024-01-30T04:20:32;29.30;;;12.40;;
74541;SDS011;63015;45.378;20.360;2024-01-30T04:22:33;32.83;;;13.57;;
74541;SDS011;63015;45.378;20.360;2024-01-30T04:24:33;25.42;;;11.98;;
74541;SDS011;63015;45.378;20.360;2024-01-30T04:26:34;29.23;;;12.75;;
74541;SDS011;63015;45.378;20.360;2024-01-30T04:28:34;30.45;;;13.35;;
74541;SDS011;63015;45.378;20.360;2024-01-30T04:30:35;24.00;;;12.25;;
74541;SDS011;63015;45.378;20.360;2024-01-30T04:32:36;24.95;;;10.98;;
74541;SDS011;63015;45.378;20.360;2024-01-30T04:34:37;33.17;;;12.93;;
74541;SDS011;63015;45.378;20.360;2024-01-30T04:36:37;20.23;;;10.00;;
74541;SDS011;63015;45.378;20.360;2024-01-30T04:38:38;23.95;;;9.25;;
74541;SDS011;63015;45.378;20.360;2024-01-30T04:40:39;23.55;;;10.15;;
74541;SDS011;63015;45.378;20.360;2024-01-30T04:42:40;26.42;;;12.27;;
74541;SDS011;63015;45.378;20.360;2024-01-30T04:44:40;16.73;;;6.82;;
74541;SDS011;63015;45.378;20.360;2024-01-30T04:46:40;19.60;;;7.43;;
74541;SDS011;63015;45.378;20.360;2024-01-30T04:48:41;25.05;;;11.55;;
74541;SDS011;63015;45.378;20.360;2024-01-30T04:50:41;27.65;;;11.55;;
74541;SDS011;63015;45.378;20.360;2024-01-30T04:52:42;28.75;;;12.30;;
74541;SDS011;63015;45.378;20.360;2024-01-30T04:54:42;19.70;;;9.20;;
74541;SDS011;63015;45.378;20.360;2024-01-30T04:56:43;22.95;;;10.02;;
74541;SDS011;63015;45.378;20.360;2024-01-30T04:58:43;14.25;;;6.38;;
74541;SDS011;63015;45.378;20.360;2024-01-30T05:00:44;17.10;;;8.60;;
74541;SDS011;63015;45.378;20.360;2024-01-30T05:02:46;24.10;;;9.98;;
74541;SDS011;63015;45.378;20.360;2024-01-30T05:04:46;26.23;;;12.18;;
74541;SDS011;63015;45.378;20.360;2024-01-30T05:06:47;28.08;;;12.40;;
74541;SDS011;63015;45.378;20.360;2024-01-30T05:08:47;28.10;;;13.13;;
74541;SDS011;63015;45.378;20.360;2024-01-30T05:10:48;19.08;;;9.23;;
74541;SDS011;63015;45.378;20.360;2024-01-30T05:12:48;21.75;;;9.77;;
74541;SDS011;63015;45.378;20.360;2024-01-30T05:14:49;33.38;;;13.02;;
74541;SDS011;63015;45.378;20.360;2024-01-30T05:16:49;35.00;;;13.82;;
74541;SDS011;63015;45.378;20.360;2024-01-30T05:18:50;31.58;;;12.15;;
74541;SDS011;63015;45.378;20.360;2024-01-30T05:20:50;33.53;;;13.65;;
74541;SDS011;63015;45.378;20.360;2024-01-30T05:22:51;28.33;;;13.00;;
74541;SDS011;63015;45.378;20.360;2024-01-30T05:24:52;25.48;;;10.05;;
74541;SDS011;63015;45.378;20.360;2024-01-30T05:26:52;26.85;;;12.10;;
74541;SDS011;63015;45.378;20.360;2024-01-30T05:28:53;28.60;;;10.35;;
74541;SDS011;63015;45.378;20.360;2024-01-30T05:30:53;46.08;;;21.67;;
74541;SDS011;63015;45.378;20.360;2024-01-30T05:32:54;32.88;;;15.07;;
74541;SDS011;63015;45.378;20.360;2024-01-30T05:34:54;32.85;;;12.85;;
74541;SDS011;63015;45.378;20.360;2024-01-30T05:36:55;27.23;;;12.10;;
74541;SDS011;63015;45.378;20.360;2024-01-30T05:38:56;31.30;;;13.80;;
74541;SDS011;63015;45.378;20.360;2024-01-30T05:40:56;36.47;;;14.55;;
74541;SDS011;63015;45.378;20.360;2024-01-30T05:42:58;41.00;;;15.93;;
74541;SDS011;63015;45.378;20.360;2024-01-30T05:45:01;26.92;;;12.35;;
74541;SDS011;63015;45.378;20.360;2024-01-30T05:47:01;27.73;;;12.52;;
74541;SDS011;63015;45.378;20.360;2024-01-30T05:49:01;26.25;;;12.23;;
74541;SDS011;63015;45.378;20.360;2024-01-30T05:51:02;23.25;;;10.50;;
74541;SDS011;63015;45.378;20.360;2024-01-30T05:53:04;23.08;;;10.38;;
74541;SDS011;63015;45.378;20.360;2024-01-30T05:55:04;20.92;;;10.05;;
74541;SDS011;63015;45.378;20.360;2024-01-30T05:57:05;27.50;;;10.63;;
74541;SDS011;63015;45.378;20.360;2024-01-30T05:59:06;20.90;;;10.30;;
74541;SDS011;63015;45.378;20.360;2024-01-30T06:01:07;20.33;;;8.55;;
74541;SDS011;63015;45.378;20.360;2024-01-30T06:03:08;22.05;;;10.32;;
74541;SDS011;63015;45.378;20.360;2024-01-30T06:05:09;26.00;;;10.45;;
74541;SDS011;63015;45.378;20.360;2024-01-30T06:07:09;21.83;;;9.32;;
74541;SDS011;63015;45.378;20.360;2024-01-30T06:09:10;21.75;;;10.10;;
74541;SDS011;63015;45.378;20.360;2024-01-30T06:11:12;24.55;;;10.75;;
74541;SDS011;63015;45.378;20.360;2024-01-30T06:13:13;21.10;;;10.35;;
74541;SDS011;63015;45.378;20.360;2024-01-30T06:15:13;24.80;;;12.07;;
74541;SDS011;63015;45.378;20.360;2024-01-30T06:17:14;32.60;;;12.07;;
74541;SDS011;63015;45.378;20.360;2024-01-30T06:19:15;31.25;;;13.02;;
74541;SDS011;63015;45.378;20.360;2024-01-30T06:21:15;29.20;;;13.02;;
74541;SDS011;63015;45.378;20.360;2024-01-30T06:23:16;30.65;;;13.18;;
74541;SDS011;63015;45.378;20.360;2024-01-30T06:25:16;28.05;;;13.25;;
74541;SDS011;63015;45.378;20.360;2024-01-30T06:27:17;25.45;;;12.25;;
74541;SDS011;63015;45.378;20.360;2024-01-30T06:29:17;28.13;;;11.48;;
74541;SDS011;63015;45.378;20.360;2024-01-30T06:31:18;29.67;;;13.50;;
74541;SDS011;63015;45.378;20.360;2024-01-30T06:33:18;35.70;;;14.20;;
74541;SDS011;63015;45.378;20.360;2024-01-30T06:35:19;33.78;;;14.65;;
74541;SDS011;63015;45.378;20.360;2024-01-30T06:37:19;29.67;;;13.13;;
74541;SDS011;63015;45.378;20.360;2024-01-30T06:39:20;23.85;;;11.30;;
74541;SDS011;63015;45.378;20.360;2024-01-30T06:41:20;46.53;;;17.83;;
74541;SDS011;63015;45.378;20.360;2024-01-30T06:43:22;46.35;;;18.48;;
74541;SDS011;63015;45.378;20.360;2024-01-30T06:45:22;20.15;;;10.45;;
74541;SDS011;63015;45.378;20.360;2024-01-30T06:47:23;58.85;;;21.73;;
74541;SDS011;63015;45.378;20.360;2024-01-30T06:49:23;41.22;;;18.05;;
74541;SDS011;63015;45.378;20.360;2024-01-30T06:51:23;50.90;;;20.52;;
74541;SDS011;63015;45.378;20.360;2024-01-30T06:53:24;48.47;;;20.55;;
74541;SDS011;63015;45.378;20.360;2024-01-30T06:55:26;75.97;;;28.17;;
74541;SDS011;63015;45.378;20.360;2024-01-30T06:57:26;62.08;;;25.83;;
74541;SDS011;63015;45.378;20.360;2024-01-30T06:59:28;56.15;;;21.13;;
74541;SDS011;63015;45.378;20.360;2024-01-30T07:01:28;49.83;;;21.23;;
74541;SDS011;63015;45.378;20.360;2024-01-30T07:03:29;72.90;;;27.30;;
74541;SDS011;63015;45.378;20.360;2024-01-30T07:05:31;63.58;;;24.98;;
74541;SDS011;63015;45.378;20.360;2024-01-30T07:07:32;52.40;;;22.98;;
74541;SDS011;63015;45.378;20.360;2024-01-30T07:09:33;62.95;;;24.75;;
74541;SDS011;63015;45.378;20.360;2024-01-30T07:11:34;47.60;;;20.35;;
74541;SDS011;63015;45.378;20.360;2024-01-30T07:13:34;60.85;;;24.23;;
74541;SDS011;63015;45.378;20.360;2024-01-30T07:15:35;47.50;;;20.40;;
74541;SDS011;63015;45.378;20.360;2024-01-30T07:17:36;50.35;;;20.83;;
74541;SDS011;63015;45.378;20.360;2024-01-30T07:19:37;40.53;;;17.15;;
74541;SDS011;63015;45.378;20.360;2024-01-30T07:21:38;56.03;;;21.60;;
74541;SDS011;63015;45.378;20.360;2024-01-30T07:23:40;29.77;;;12.18;;
74541;SDS011;63015;45.378;20.360;2024-01-30T07:25:42;46.20;;;20.52;;
74541;SDS011;63015;45.378;20.360;2024-01-30T07:27:43;37.67;;;15.15;;
74541;SDS011;63015;45.378;20.360;2024-01-30T07:29:43;45.45;;;18.33;;
74541;SDS011;63015;45.378;20.360;2024-01-30T07:31:44;49.90;;;20.67;;
74541;SDS011;63015;45.378;20.360;2024-01-30T07:33:44;41.30;;;17.13;;
74541;SDS011;63015;45.378;20.360;2024-01-30T07:35:45;39.97;;;15.88;;
74541;SDS011;63015;45.378;20.360;2024-01-30T07:37:46;28.27;;;12.43;;
74541;SDS011;63015;45.378;20.360;2024-01-30T07:39:46;38.83;;;16.27;;
74541;SDS011;63015;45.378;20.360;2024-01-30T07:41:47;47.78;;;16.92;;
74541;SDS011;63015;45.378;20.360;2024-01-30T07:43:47;39.47;;;16.40;;
74541;SDS011;63015;45.378;20.360;2024-01-30T07:45:48;42.40;;;17.42;;
74541;SDS011;63015;45.378;20.360;2024-01-30T07:47:49;33.75;;;13.88;;
74541;SDS011;63015;45.378;20.360;2024-01-30T07:49:49;40.88;;;16.85;;
74541;SDS011;63015;45.378;20.360;2024-01-30T07:51:50;31.60;;;12.10;;
74541;SDS011;63015;45.378;20.360;2024-01-30T07:53:51;46.70;;;15.05;;
74541;SDS011;63015;45.378;20.360;2024-01-30T07:55:52;22.40;;;10.75;;
74541;SDS011;63015;45.378;20.360;2024-01-30T07:58:17;37.05;;;14.73;;
74541;SDS011;63015;45.378;20.360;2024-01-30T08:00:18;22.63;;;9.73;;
74541;SDS011;63015;45.378;20.360;2024-01-30T08:02:21;23.85;;;11.63;;
74541;SDS011;63015;45.378;20.360;2024-01-30T08:04:22;37.67;;;12.77;;
74541;SDS011;63015;45.378;20.360;2024-01-30T08:06:22;34.10;;;14.15;;
74541;SDS011;63015;45.378;20.360;2024-01-30T08:08:23;28.70;;;11.90;;
74541;SDS011;63015;45.378;20.360;2024-01-30T08:10:23;36.15;;;14.82;;
74541;SDS011;63015;45.378;20.360;2024-01-30T08:12:24;22.45;;;10.07;;
74541;SDS011;63015;45.378;20.360;2024-01-30T08:14:24;31.50;;;13.45;;
74541;SDS011;63015;45.378;20.360;2024-01-30T08:16:26;23.23;;;8.90;;
74541;SDS011;63015;45.378;20.360;2024-01-30T08:18:26;33.45;;;13.55;;
74541;SDS011;63015;45.378;20.360;2024-01-30T08:20:27;29.15;;;12.57;;
74541;SDS011;63015;45.378;20.360;2024-01-30T08:22:27;23.95;;;9.45;;
74541;SDS011;63015;45.378;20.360;2024-01-30T08:24:27;21.20;;;9.07;;
74541;SDS011;63015;45.378;20.360;2024-01-30T08:26:28;21.10;;;9.27;;
74541;SDS011;63015;45.378;20.360;2024-01-30T08:28:29;23.42;;;10.38;;
74541;SDS011;63015;45.378;20.360;2024-01-30T08:30:29;25.52;;;10.60;;
74541;SDS011;63015;45.378;20.360;2024-01-30T08:32:29;20.88;;;8.38;;
74541;SDS011;63015;45.378;20.360;2024-01-30T08:34:30;18.05;;;7.43;;
74541;SDS011;63015;45.378;20.360;2024-01-30T08:36:30;18.70;;;8.85;;
74541;SDS011;63015;45.378;20.360;2024-01-30T08:38:31;17.33;;;8.07;;
74541;SDS011;63015;45.378;20.360;2024-01-30T08:40:31;19.15;;;7.70;;
74541;SDS011;63015;45.378;20.360;2024-01-30T08:42:32;18.30;;;7.75;;
74541;SDS011;63015;45.378;20.360;2024-01-30T08:44:33;13.43;;;6.10;;
74541;SDS011;63015;45.378;20.360;2024-01-30T08:46:33;21.83;;;8.68;;
74541;SDS011;63015;45.378;20.360;2024-01-30T08:48:35;16.95;;;6.35;;
74541;SDS011;63015;45.378;20.360;2024-01-30T08:50:36;23.45;;;9.55;;
74541;SDS011;63015;45.378;20.360;2024-01-30T08:52:36;20.38;;;8.40;;
74541;SDS011;63015;45.378;20.360;2024-01-30T08:54:37;20.33;;;8.68;;
74541;SDS011;63015;45.378;20.360;2024-01-30T08:56:37;26.33;;;10.82;;
74541;SDS011;63015;45.378;20.360;2024-01-30T08:58:38;17.60;;;7.70;;
74541;SDS011;63015;45.378;20.360;2024-01-30T09:00:38;20.25;;;7.63;;
74541;SDS011;63015;45.378;20.360;2024-01-30T09:02:39;22.23;;;9.05;;
74541;SDS011;63015;45.378;20.360;2024-01-30T09:04:39;15.70;;;7.13;;
74541;SDS011;63015;45.378;20.360;2024-01-30T09:06:40;15.70;;;7.38;;
74541;SDS011;63015;45.378;20.360;2024-01-30T09:08:40;15.20;;;7.45;;
74541;SDS011;63015;45.378;20.360;2024-01-30T09:10:41;12.43;;;4.85;;
74541;SDS011;63015;45.378;20.360;2024-01-30T09:12:41;9.68;;;4.32;;
74541;SDS011;63015;45.378;20.360;2024-01-30T09:14:42;13.57;;;7.47;;
74541;SDS011;63015;45.378;20.360;2024-01-30T09:16:42;12.32;;;6.05;;
74541;SDS011;63015;45.378;20.360;2024-01-30T09:18:43;14.10;;;5.95;;
74541;SDS011;63015;45.378;20.360;2024-01-30T09:20:43;12.38;;;6.15;;
74541;SDS011;63015;45.378;20.360;2024-01-30T09:22:45;14.88;;;6.28;;
74541;SDS011;63015;45.378;20.360;2024-01-30T09:24:46;15.20;;;7.28;;
74541;SDS011;63015;45.378;20.360;2024-01-30T09:26:46;16.15;;;8.02;;
74541;SDS011;63015;45.378;20.360;2024-01-30T09:28:47;11.27;;;4.88;;
74541;SDS011;63015;45.378;20.360;2024-01-30T09:30:47;14.60;;;6.68;;
74541;SDS011;63015;45.378;20.360;2024-01-30T09:32:47;12.45;;;5.80;;
74541;SDS011;63015;45.378;20.360;2024-01-30T09:34:48;12.65;;;5.63;;
74541;SDS011;63015;45.378;20.360;2024-01-30T09:36:48;11.05;;;4.70;;
74541;SDS011;63015;45.378;20.360;2024-01-30T09:38:49;10.52;;;4.93;;
74541;SDS011;63015;45.378;20.360;2024-01-30T09:40:51;17.10;;;5.57;;
74541;SDS011;63015;45.378;20.360;2024-01-30T09:42:56;14.30;;;6.20;;
74541;SDS011;63015;45.378;20.360;2024-01-30T09:44:58;15.85;;;6.63;;
74541;SDS011;63015;45.378;20.360;2024-01-30T09:46:58;11.45;;;5.05;;
74541;SDS011;63015;45.378;20.360;2024-01-30T09:49:03;20.27;;;8.27;;
74541;SDS011;63015;45.378;20.360;2024-01-30T09:51:05;13.15;;;4.70;;
74541;SDS011;63015;45.378;20.360;2024-01-30T09:53:07;17.13;;;7.28;;
74541;SDS011;63015;45.378;20.360;2024-01-30T09:55:09;12.90;;;6.78;;
74541;SDS011;63015;45.378;20.360;2024-01-30T09:57:10;10.93;;;5.03;;
74541;SDS011;63015;45.378;20.360;2024-01-30T09:59:11;10.05;;;4.50;;
74541;SDS011;63015;45.378;20.360;2024-01-30T10:01:12;9.98;;;5.03;;
74541;SDS011;63015;45.378;20.360;2024-01-30T10:03:12;7.70;;;3.92;;
74541;SDS011;63015;45.378;20.360;2024-01-30T10:05:15;11.23;;;5.20;;
74541;SDS011;63015;45.378;20.360;2024-01-30T10:07:18;10.50;;;4.95;;
74541;SDS011;63015;45.378;20.360;2024-01-30T10:09:19;12.32;;;4.28;;
74541;SDS011;63015;45.378;20.360;2024-01-30T10:11:20;11.65;;;4.05;;
74541;SDS011;63015;45.378;20.360;2024-01-30T10:13:22;10.60;;;5.15;;
74541;SDS011;63015;45.378;20.360;2024-01-30T10:15:22;10.43;;;5.68;;
74541;SDS011;63015;45.378;20.360;2024-01-30T10:17:24;9.63;;;4.68;;
74541;SDS011;63015;45.378;20.360;2024-01-30T10:19:25;8.80;;;4.32;;
74541;SDS011;63015;45.378;20.360;2024-01-30T10:21:26;10.20;;;4.47;;
74541;SDS011;63015;45.378;20.360;2024-01-30T10:23:27;11.88;;;5.70;;
74541;SDS011;63015;45.378;20.360;2024-01-30T10:25:30;13.05;;;5.70;;
74541;SDS011;63015;45.378;20.360;2024-01-30T10:27:31;9.65;;;4.40;;
74541;SDS011;63015;45.378;20.360;2024-01-30T10:29:32;10.95;;;4.80;;
74541;SDS011;63015;45.378;20.360;2024-01-30T10:31:32;10.30;;;5.03;;
74541;SDS011;63015;45.378;20.360;2024-01-30T10:33:33;8.18;;;4.10;;
74541;SDS011;63015;45.378;20.360;2024-01-30T10:35:34;9.63;;;4.25;;
74541;SDS011;63015;45.378;20.360;2024-01-30T10:37:34;9.63;;;4.80;;
74541;SDS011;63015;45.378;20.360;2024-01-30T10:39:37;9.07;;;3.53;;
74541;SDS011;63015;45.378;20.360;2024-01-30T10:41:42;12.25;;;4.68;;
74541;SDS011;63015;45.378;20.360;2024-01-30T10:43:45;13.68;;;4.97;;
74541;SDS011;63015;45.378;20.360;2024-01-30T10:45:50;12.25;;;4.93;;
74541;SDS011;63015;45.378;20.360;2024-01-30T10:47:54;9.10;;;4.75;;
74541;SDS011;63015;45.378;20.360;2024-01-30T10:49:58;12.70;;;5.65;;
74541;SDS011;63015;45.378;20.360;2024-01-30T10:51:59;10.25;;;4.90;;
74541;SDS011;63015;45.378;20.360;2024-01-30T10:54:00;10.02;;;4.18;;
74541;SDS011;63015;45.378;20.360;2024-01-30T10:56:02;11.85;;;4.80;;
74541;SDS011;63015;45.378;20.360;2024-01-30T10:58:04;11.13;;;5.25;;
74541;SDS011;63015;45.378;20.360;2024-01-30T11:00:08;11.35;;;6.20;;
74541;SDS011;63015;45.378;20.360;2024-01-30T11:02:10;10.73;;;4.75;;
74541;SDS011;63015;45.378;20.360;2024-01-30T11:04:11;9.95;;;4.60;;
74541;SDS011;63015;45.378;20.360;2024-01-30T11:06:13;11.50;;;4.85;;
74541;SDS011;63015;45.378;20.360;2024-01-30T11:08:24;12.88;;;5.88;;
74541;SDS011;63015;45.378;20.360;2024-01-30T11:10:26;8.52;;;3.60;;
74541;SDS011;63015;45.378;20.360;2024-01-30T11:12:27;10.00;;;4.93;;
74541;SDS011;63015;45.378;20.360;2024-01-30T11:14:31;11.88;;;5.05;;
74541;SDS011;63015;45.378;20.360;2024-01-30T11:16:32;10.63;;;5.55;;
74541;SDS011;63015;45.378;20.360;2024-01-30T11:18:35;7.88;;;3.72;;
74541;SDS011;63015;45.378;20.360;2024-01-30T11:20:35;9.63;;;5.05;;
74541;SDS011;63015;45.378;20.360;2024-01-30T11:22:36;8.77;;;3.80;;
74541;SDS011;63015;45.378;20.360;2024-01-30T11:24:40;9.82;;;4.70;;
74541;SDS011;63015;45.378;20.360;2024-01-30T11:26:43;12.32;;;5.07;;
74541;SDS011;63015;45.378;20.360;2024-01-30T11:28:44;11.18;;;5.55;;
74541;SDS011;63015;45.378;20.360;2024-01-30T11:31:02;12.10;;;6.00;;
74541;SDS011;63015;45.378;20.360;2024-01-30T11:33:06;10.93;;;5.00;;
74541;SDS011;63015;45.378;20.360;2024-01-30T11:35:08;8.63;;;3.78;;
74541;SDS011;63015;45.378;20.360;2024-01-30T11:37:11;9.27;;;4.70;;
74541;SDS011;63015;45.378;20.360;2024-01-30T11:39:13;10.23;;;4.85;;
74541;SDS011;63015;45.378;20.360;2024-01-30T11:41:17;8.57;;;4.50;;